sensor_id;sensor_type;location;lat;lon;timestamp;P1;durP1;ratioP1;P2;durP2;ratioP2
53056;SDS011;38940;50.096;4.012;2023-07-31T00:00:39;5.30;;;1.80;;
53056;SDS011;38940;50.096;4.012;2023-07-31T00:03:05;7.32;;;2.00;;
53056;SDS011;38940;50.096;4.012;2023-07-31T00:05:31;4.67;;;2.00;;
53056;SDS011;38940;50.096;4.012;2023-07-31T00:07:57;3.45;;;1.83;;
53056;SDS011;38940;50.096;4.012;2023-07-31T00:10:23;4.10;;;2.10;;
53056;SDS011;38940;50.096;4.012;2023-07-31T00:12:49;4.95;;;2.05;;
53056;SDS011;38940;50.096;4.012;2023-07-31T00:15:14;4.60;;;1.93;;
53056;SDS011;38940;50.096;4.012;2023-07-31T00:17:40;7.15;;;1.98;;
53056;SDS011;38940;50.096;4.012;2023-07-31T00:20:07;6.15;;;2.20;;
53056;SDS011;38940;50.096;4.012;2023-07-31T00:22:33;5.22;;;1.95;;
53056;SDS011;38940;50.096;4.012;2023-07-31T00:24:59;5.00;;;2.00;;
53056;SDS011;38940;50.096;4.012;2023-07-31T00:27:25;5.35;;;2.05;;
53056;SDS011;38940;50.096;4.012;2023-07-31T00:29:51;6.00;;;2.10;;
53056;SDS011;38940;50.096;4.012;2023-07-31T00:32:17;3.47;;;2.00;;
53056;SDS011;38940;50.096;4.012;2023-07-31T00:34:43;5.35;;;2.20;;
53056;SDS011;38940;50.096;4.012;2023-07-31T00:37:09;5.70;;;2.38;;
53056;SDS011;38940;50.096;4.012;2023-07-31T00:39:35;4.53;;;2.15;;
53056;SDS011;38940;50.096;4.012;2023-07-31T00:42:01;5.10;;;2.05;;
53056;SDS011;38940;50.096;4.012;2023-07-31T00:44:27;3.53;;;1.85;;
53056;SDS011;38940;50.096;4.012;2023-07-31T00:46:53;5.00;;;2.20;;
53056;SDS011;38940;50.096;4.012;2023-07-31T00:49:20;7.30;;;2.20;;
53056;SDS011;38940;50.096;4.012;2023-07-31T00:51:46;5.23;;;1.80;;
53056;SDS011;38940;50.096;4.012;2023-07-31T00:54:12;4.80;;;2.08;;
53056;SDS011;38940;50.096;4.012;2023-07-31T00:56:38;5.95;;;1.83;;
53056;SDS011;38940;50.096;4.012;2023-07-31T00:59:06;3.38;;;1.75;;
53056;SDS011;38940;50.096;4.012;2023-07-31T01:01:32;4.82;;;1.92;;
53056;SDS011;38940;50.096;4.012;2023-07-31T01:03:58;3.88;;;1.92;;
53056;SDS011;38940;50.096;4.012;2023-07-31T01:06:29;3.67;;;1.80;;
53056;SDS011;38940;50.096;4.012;2023-07-31T01:09:02;4.27;;;1.70;;
53056;SDS011;38940;50.096;4.012;2023-07-31T01:11:38;6.00;;;2.03;;
53056;SDS011;38940;50.096;4.012;2023-07-31T01:14:06;5.20;;;1.85;;
53056;SDS011;38940;50.096;4.012;2023-07-31T01:16:32;5.45;;;1.90;;
53056;SDS011;38940;50.096;4.012;2023-07-31T01:18:58;6.50;;;1.80;;
53056;SDS011;38940;50.096;4.012;2023-07-31T01:26:45;4.22;;;1.88;;
53056;SDS011;38940;50.096;4.012;2023-07-31T01:31:42;4.70;;;1.70;;
53056;SDS011;38940;50.096;4.012;2023-07-31T01:34:09;4.03;;;1.70;;
53056;SDS011;38940;50.096;4.012;2023-07-31T01:36:35;3.90;;;1.83;;
53056;SDS011;38940;50.096;4.012;2023-07-31T01:39:01;4.85;;;1.73;;
53056;SDS011;38940;50.096;4.012;2023-07-31T01:41:28;6.57;;;1.92;;
53056;SDS011;38940;50.096;4.012;2023-07-31T01:43:54;4.15;;;1.88;;
53056;SDS011;38940;50.096;4.012;2023-07-31T01:46:20;4.60;;;1.80;;
53056;SDS011;38940;50.096;4.012;2023-07-31T01:48:46;7.28;;;2.20;;
53056;SDS011;38940;50.096;4.012;2023-07-31T01:51:12;6.45;;;1.88;;
53056;SDS011;38940;50.096;4.012;2023-07-31T01:53:38;6.00;;;2.10;;
53056;SDS011;38940;50.096;4.012;2023-07-31T01:56:04;4.55;;;2.00;;
53056;SDS011;38940;50.096;4.012;2023-07-31T01:58:30;5.30;;;2.00;;
53056;SDS011;38940;50.096;4.012;2023-07-31T02:00:56;4.25;;;1.95;;
53056;SDS011;38940;50.096;4.012;2023-07-31T02:03:22;4.57;;;1.70;;
53056;SDS011;38940;50.096;4.012;2023-07-31T02:05:49;4.38;;;1.98;;
53056;SDS011;38940;50.096;4.012;2023-07-31T02:08:15;6.70;;;2.05;;
53056;SDS011;38940;50.096;4.012;2023-07-31T02:10:41;4.65;;;1.80;;
53056;SDS011;38940;50.096;4.012;2023-07-31T02:13:07;7.47;;;2.22;;
53056;SDS011;38940;50.096;4.012;2023-07-31T02:15:34;6.18;;;2.15;;
53056;SDS011;38940;50.096;4.012;2023-07-31T02:18:00;5.43;;;1.85;;
53056;SDS011;38940;50.096;4.012;2023-07-31T02:20:26;4.55;;;1.80;;
53056;SDS011;38940;50.096;4.012;2023-07-31T02:22:52;7.23;;;1.90;;
53056;SDS011;38940;50.096;4.012;2023-07-31T02:25:18;5.95;;;2.03;;
53056;SDS011;38940;50.096;4.012;2023-07-31T02:27:44;6.07;;;2.03;;
53056;SDS011;38940;50.096;4.012;2023-07-31T02:30:10;5.43;;;1.83;;
53056;SDS011;38940;50.096;4.012;2023-07-31T02:32:36;4.72;;;2.13;;
53056;SDS011;38940;50.096;4.012;2023-07-31T02:35:02;4.53;;;2.25;;
53056;SDS011;38940;50.096;4.012;2023-07-31T02:37:28;7.07;;;2.00;;
53056;SDS011;38940;50.096;4.012;2023-07-31T02:39:54;5.43;;;1.77;;
53056;SDS011;38940;50.096;4.012;2023-07-31T02:42:20;6.63;;;2.38;;
53056;SDS011;38940;50.096;4.012;2023-07-31T02:44:46;7.82;;;2.20;;
53056;SDS011;38940;50.096;4.012;2023-07-31T02:47:12;7.53;;;2.13;;
53056;SDS011;38940;50.096;4.012;2023-07-31T02:49:38;9.10;;;2.20;;
53056;SDS011;38940;50.096;4.012;2023-07-31T02:52:04;6.30;;;2.33;;
53056;SDS011;38940;50.096;4.012;2023-07-31T02:54:30;6.03;;;2.10;;
53056;SDS011;38940;50.096;4.012;2023-07-31T02:56:56;6.70;;;2.15;;
53056;SDS011;38940;50.096;4.012;2023-07-31T02:59:22;7.13;;;2.40;;
53056;SDS011;38940;50.096;4.012;2023-07-31T03:01:50;4.57;;;1.98;;
53056;SDS011;38940;50.096;4.012;2023-07-31T03:04:16;4.65;;;1.90;;
53056;SDS011;38940;50.096;4.012;2023-07-31T03:06:42;7.07;;;2.42;;
53056;SDS011;38940;50.096;4.012;2023-07-31T03:09:08;6.75;;;2.25;;
53056;SDS011;38940;50.096;4.012;2023-07-31T03:11:34;5.38;;;2.17;;
53056;SDS011;38940;50.096;4.012;2023-07-31T03:14:00;7.18;;;2.33;;
53056;SDS011;38940;50.096;4.012;2023-07-31T03:16:26;6.00;;;2.08;;
53056;SDS011;38940;50.096;4.012;2023-07-31T03:18:52;9.00;;;2.30;;
53056;SDS011;38940;50.096;4.012;2023-07-31T03:21:18;6.57;;;2.10;;
53056;SDS011;38940;50.096;4.012;2023-07-31T03:23:44;8.23;;;2.22;;
53056;SDS011;38940;50.096;4.012;2023-07-31T03:26:09;7.07;;;2.05;;
53056;SDS011;38940;50.096;4.012;2023-07-31T03:28:36;7.80;;;2.17;;
53056;SDS011;38940;50.096;4.012;2023-07-31T03:31:02;5.00;;;2.20;;
53056;SDS011;38940;50.096;4.012;2023-07-31T03:33:28;6.47;;;2.17;;
53056;SDS011;38940;50.096;4.012;2023-07-31T03:35:54;6.97;;;2.30;;
53056;SDS011;38940;50.096;4.012;2023-07-31T03:38:20;5.90;;;2.30;;
53056;SDS011;38940;50.096;4.012;2023-07-31T03:40:46;9.02;;;2.38;;
53056;SDS011;38940;50.096;4.012;2023-07-31T03:43:12;6.03;;;2.30;;
53056;SDS011;38940;50.096;4.012;2023-07-31T03:45:38;10.75;;;2.45;;
53056;SDS011;38940;50.096;4.012;2023-07-31T03:48:04;8.77;;;2.30;;
53056;SDS011;38940;50.096;4.012;2023-07-31T03:50:30;4.82;;;2.20;;
53056;SDS011;38940;50.096;4.012;2023-07-31T03:52:56;5.45;;;2.45;;
53056;SDS011;38940;50.096;4.012;2023-07-31T03:55:22;9.27;;;2.40;;
53056;SDS011;38940;50.096;4.012;2023-07-31T03:57:48;5.63;;;2.23;;
53056;SDS011;38940;50.096;4.012;2023-07-31T04:00:14;7.22;;;1.98;;
53056;SDS011;38940;50.096;4.012;2023-07-31T04:02:40;5.55;;;2.20;;
53056;SDS011;38940;50.096;4.012;2023-07-31T04:05:07;5.72;;;2.20;;
53056;SDS011;38940;50.096;4.012;2023-07-31T04:07:33;4.97;;;2.30;;
53056;SDS011;38940;50.096;4.012;2023-07-31T04:09:59;8.63;;;2.10;;
53056;SDS011;38940;50.096;4.012;2023-07-31T04:12:25;4.78;;;2.22;;
53056;SDS011;38940;50.096;4.012;2023-07-31T04:14:51;8.05;;;2.40;;
53056;SDS011;38940;50.096;4.012;2023-07-31T04:17:17;6.90;;;2.37;;
53056;SDS011;38940;50.096;4.012;2023-07-31T04:19:44;6.10;;;2.03;;
53056;SDS011;38940;50.096;4.012;2023-07-31T04:22:09;5.20;;;2.30;;
53056;SDS011;38940;50.096;4.012;2023-07-31T04:24:35;4.47;;;1.83;;
53056;SDS011;38940;50.096;4.012;2023-07-31T04:27:01;7.93;;;2.30;;
53056;SDS011;38940;50.096;4.012;2023-07-31T04:29:28;7.80;;;2.20;;
53056;SDS011;38940;50.096;4.012;2023-07-31T04:31:54;7.70;;;2.10;;
53056;SDS011;38940;50.096;4.012;2023-07-31T04:34:20;7.38;;;2.30;;
53056;SDS011;38940;50.096;4.012;2023-07-31T04:36:46;6.53;;;2.20;;
53056;SDS011;38940;50.096;4.012;2023-07-31T04:39:12;7.07;;;2.40;;
53056;SDS011;38940;50.096;4.012;2023-07-31T04:41:38;5.03;;;2.13;;
53056;SDS011;38940;50.096;4.012;2023-07-31T04:44:04;4.55;;;2.10;;
53056;SDS011;38940;50.096;4.012;2023-07-31T04:46:30;8.25;;;2.30;;
53056;SDS011;38940;50.096;4.012;2023-07-31T04:48:56;6.18;;;2.17;;
53056;SDS011;38940;50.096;4.012;2023-07-31T04:51:22;6.10;;;2.03;;
53056;SDS011;38940;50.096;4.012;2023-07-31T04:53:48;8.70;;;2.38;;
53056;SDS011;38940;50.096;4.012;2023-07-31T04:56:15;5.28;;;2.30;;
53056;SDS011;38940;50.096;4.012;2023-07-31T04:58:41;4.57;;;2.10;;
53056;SDS011;38940;50.096;4.012;2023-07-31T05:01:07;5.95;;;2.38;;
53056;SDS011;38940;50.096;4.012;2023-07-31T05:03:33;7.10;;;2.20;;
53056;SDS011;38940;50.096;4.012;2023-07-31T05:05:59;6.75;;;2.30;;
53056;SDS011;38940;50.096;4.012;2023-07-31T05:08:25;7.00;;;2.50;;
53056;SDS011;38940;50.096;4.012;2023-07-31T05:10:51;5.72;;;2.10;;
53056;SDS011;38940;50.096;4.012;2023-07-31T05:13:17;8.52;;;2.38;;
53056;SDS011;38940;50.096;4.012;2023-07-31T05:15:43;7.30;;;2.28;;
53056;SDS011;38940;50.096;4.012;2023-07-31T05:18:09;7.07;;;2.15;;
53056;SDS011;38940;50.096;4.012;2023-07-31T05:20:35;7.13;;;2.40;;
53056;SDS011;38940;50.096;4.012;2023-07-31T05:23:01;6.07;;;2.58;;
53056;SDS011;38940;50.096;4.012;2023-07-31T05:25:27;6.57;;;2.25;;
53056;SDS011;38940;50.096;4.012;2023-07-31T05:27:53;6.05;;;2.00;;
53056;SDS011;38940;50.096;4.012;2023-07-31T05:30:19;7.40;;;2.30;;
53056;SDS011;38940;50.096;4.012;2023-07-31T05:32:46;7.70;;;2.40;;
53056;SDS011;38940;50.096;4.012;2023-07-31T05:35:12;7.43;;;2.50;;
53056;SDS011;38940;50.096;4.012;2023-07-31T05:37:38;5.53;;;2.20;;
53056;SDS011;38940;50.096;4.012;2023-07-31T05:40:04;12.00;;;2.50;;
53056;SDS011;38940;50.096;4.012;2023-07-31T05:42:30;8.43;;;2.50;;
53056;SDS011;38940;50.096;4.012;2023-07-31T05:44:56;6.80;;;2.35;;
53056;SDS011;38940;50.096;4.012;2023-07-31T05:47:22;11.13;;;2.50;;
53056;SDS011;38940;50.096;4.012;2023-07-31T05:49:48;5.97;;;2.30;;
53056;SDS011;38940;50.096;4.012;2023-07-31T05:52:17;6.35;;;2.40;;
53056;SDS011;38940;50.096;4.012;2023-07-31T05:54:43;7.88;;;2.30;;
53056;SDS011;38940;50.096;4.012;2023-07-31T05:57:10;6.05;;;1.95;;
53056;SDS011;38940;50.096;4.012;2023-07-31T05:59:37;7.43;;;2.22;;
53056;SDS011;38940;50.096;4.012;2023-07-31T06:02:03;6.57;;;2.10;;
53056;SDS011;38940;50.096;4.012;2023-07-31T06:04:29;5.55;;;2.00;;
53056;SDS011;38940;50.096;4.012;2023-07-31T06:06:56;6.38;;;2.10;;
53056;SDS011;38940;50.096;4.012;2023-07-31T06:09:22;7.72;;;2.30;;
53056;SDS011;38940;50.096;4.012;2023-07-31T06:11:48;5.65;;;2.10;;
53056;SDS011;38940;50.096;4.012;2023-07-31T06:14:14;7.82;;;2.10;;
53056;SDS011;38940;50.096;4.012;2023-07-31T06:16:40;6.43;;;2.17;;
53056;SDS011;38940;50.096;4.012;2023-07-31T06:19:06;6.40;;;2.45;;
53056;SDS011;38940;50.096;4.012;2023-07-31T06:21:32;5.68;;;2.10;;
53056;SDS011;38940;50.096;4.012;2023-07-31T06:23:58;5.80;;;2.13;;
53056;SDS011;38940;50.096;4.012;2023-07-31T06:26:24;5.68;;;2.10;;
53056;SDS011;38940;50.096;4.012;2023-07-31T06:28:50;7.72;;;2.20;;
53056;SDS011;38940;50.096;4.012;2023-07-31T06:31:16;7.60;;;2.05;;
53056;SDS011;38940;50.096;4.012;2023-07-31T06:33:45;5.25;;;2.17;;
53056;SDS011;38940;50.096;4.012;2023-07-31T06:36:11;6.63;;;2.30;;
53056;SDS011;38940;50.096;4.012;2023-07-31T06:38:37;8.63;;;2.17;;
53056;SDS011;38940;50.096;4.012;2023-07-31T06:41:03;5.77;;;1.90;;
53056;SDS011;38940;50.096;4.012;2023-07-31T06:43:29;6.93;;;2.08;;
53056;SDS011;38940;50.096;4.012;2023-07-31T06:45:55;8.75;;;2.17;;
53056;SDS011;38940;50.096;4.012;2023-07-31T06:48:21;9.10;;;2.30;;
53056;SDS011;38940;50.096;4.012;2023-07-31T06:50:47;6.35;;;2.30;;
53056;SDS011;38940;50.096;4.012;2023-07-31T06:53:13;5.88;;;2.22;;
53056;SDS011;38940;50.096;4.012;2023-07-31T06:55:39;7.82;;;2.15;;
53056;SDS011;38940;50.096;4.012;2023-07-31T06:58:05;7.60;;;2.30;;
53056;SDS011;38940;50.096;4.012;2023-07-31T07:00:31;7.35;;;2.15;;
53056;SDS011;38940;50.096;4.012;2023-07-31T07:02:57;7.28;;;2.20;;
53056;SDS011;38940;50.096;4.012;2023-07-31T07:05:23;6.45;;;2.30;;
53056;SDS011;38940;50.096;4.012;2023-07-31T07:07:49;7.15;;;2.00;;
53056;SDS011;38940;50.096;4.012;2023-07-31T07:10:18;8.13;;;1.98;;
53056;SDS011;38940;50.096;4.012;2023-07-31T07:12:45;5.25;;;2.22;;
53056;SDS011;38940;50.096;4.012;2023-07-31T07:15:11;5.85;;;2.33;;
53056;SDS011;38940;50.096;4.012;2023-07-31T07:17:37;6.47;;;2.40;;
53056;SDS011;38940;50.096;4.012;2023-07-31T07:20:04;6.97;;;2.00;;
53056;SDS011;38940;50.096;4.012;2023-07-31T07:22:30;8.37;;;2.23;;
53056;SDS011;38940;50.096;4.012;2023-07-31T07:24:56;6.35;;;2.00;;
53056;SDS011;38940;50.096;4.012;2023-07-31T07:27:22;6.57;;;2.25;;
53056;SDS011;38940;50.096;4.012;2023-07-31T07:29:49;5.55;;;2.30;;
53056;SDS011;38940;50.096;4.012;2023-07-31T07:32:17;6.32;;;2.13;;
53056;SDS011;38940;50.096;4.012;2023-07-31T07:34:43;8.27;;;2.50;;
53056;SDS011;38940;50.096;4.012;2023-07-31T07:37:09;7.33;;;2.10;;
53056;SDS011;38940;50.096;4.012;2023-07-31T07:39:35;5.15;;;2.25;;
53056;SDS011;38940;50.096;4.012;2023-07-31T07:42:01;6.88;;;2.17;;
53056;SDS011;38940;50.096;4.012;2023-07-31T07:44:27;6.45;;;2.03;;
53056;SDS011;38940;50.096;4.012;2023-07-31T07:46:53;5.38;;;2.00;;
53056;SDS011;38940;50.096;4.012;2023-07-31T07:49:19;7.43;;;2.25;;
53056;SDS011;38940;50.096;4.012;2023-07-31T07:51:47;7.47;;;2.25;;
53056;SDS011;38940;50.096;4.012;2023-07-31T07:54:13;5.93;;;2.10;;
53056;SDS011;38940;50.096;4.012;2023-07-31T07:56:39;6.20;;;2.25;;
53056;SDS011;38940;50.096;4.012;2023-07-31T07:59:06;9.00;;;2.55;;
53056;SDS011;38940;50.096;4.012;2023-07-31T08:01:32;6.50;;;2.25;;
53056;SDS011;38940;50.096;4.012;2023-07-31T08:03:58;6.83;;;2.20;;
53056;SDS011;38940;50.096;4.012;2023-07-31T08:06:24;6.32;;;2.17;;
53056;SDS011;38940;50.096;4.012;2023-07-31T08:08:50;6.75;;;2.42;;
53056;SDS011;38940;50.096;4.012;2023-07-31T08:11:15;7.38;;;2.60;;
53056;SDS011;38940;50.096;4.012;2023-07-31T08:13:41;7.47;;;3.30;;
53056;SDS011;38940;50.096;4.012;2023-07-31T08:16:07;10.88;;;5.38;;
53056;SDS011;38940;50.096;4.012;2023-07-31T08:18:34;10.95;;;4.78;;
53056;SDS011;38940;50.096;4.012;2023-07-31T08:21:01;10.65;;;4.68;;
53056;SDS011;38940;50.096;4.012;2023-07-31T08:23:28;8.45;;;3.63;;
53056;SDS011;38940;50.096;4.012;2023-07-31T08:25:54;6.43;;;2.73;;
53056;SDS011;38940;50.096;4.012;2023-07-31T08:28:20;8.43;;;3.60;;
53056;SDS011;38940;50.096;4.012;2023-07-31T08:30:46;12.13;;;4.35;;
53056;SDS011;38940;50.096;4.012;2023-07-31T08:33:12;10.48;;;4.07;;
53056;SDS011;38940;50.096;4.012;2023-07-31T08:35:38;9.95;;;3.47;;
53056;SDS011;38940;50.096;4.012;2023-07-31T08:38:04;7.93;;;3.35;;
53056;SDS011;38940;50.096;4.012;2023-07-31T08:40:30;8.50;;;3.10;;
53056;SDS011;38940;50.096;4.012;2023-07-31T08:42:56;7.03;;;3.13;;
53056;SDS011;38940;50.096;4.012;2023-07-31T08:45:26;7.18;;;2.80;;
53056;SDS011;38940;50.096;4.012;2023-07-31T08:47:53;9.80;;;3.67;;
53056;SDS011;38940;50.096;4.012;2023-07-31T08:50:19;9.68;;;3.55;;
53056;SDS011;38940;50.096;4.012;2023-07-31T08:52:46;9.10;;;3.67;;
53056;SDS011;38940;50.096;4.012;2023-07-31T08:55:12;8.55;;;3.50;;
53056;SDS011;38940;50.096;4.012;2023-07-31T08:57:38;9.32;;;3.22;;
53056;SDS011;38940;50.096;4.012;2023-07-31T09:00:06;7.63;;;2.97;;
53056;SDS011;38940;50.096;4.012;2023-07-31T09:05:08;10.53;;;3.27;;
53056;SDS011;38940;50.096;4.012;2023-07-31T09:07:34;9.57;;;3.30;;
53056;SDS011;38940;50.096;4.012;2023-07-31T09:10:01;8.45;;;3.08;;
53056;SDS011;38940;50.096;4.012;2023-07-31T09:12:27;8.27;;;3.20;;
53056;SDS011;38940;50.096;4.012;2023-07-31T09:14:53;8.70;;;3.13;;
53056;SDS011;38940;50.096;4.012;2023-07-31T09:17:29;8.85;;;3.35;;
53056;SDS011;38940;50.096;4.012;2023-07-31T09:19:56;10.98;;;3.58;;
53056;SDS011;38940;50.096;4.012;2023-07-31T09:22:31;11.88;;;4.30;;
53056;SDS011;38940;50.096;4.012;2023-07-31T09:25:03;11.48;;;3.60;;
53056;SDS011;38940;50.096;4.012;2023-07-31T09:27:36;10.85;;;3.65;;
53056;SDS011;38940;50.096;4.012;2023-07-31T09:30:11;8.02;;;3.75;;
53056;SDS011;38940;50.096;4.012;2023-07-31T09:32:37;8.13;;;3.33;;
53056;SDS011;38940;50.096;4.012;2023-07-31T09:35:12;8.55;;;3.13;;
53056;SDS011;38940;50.096;4.012;2023-07-31T09:37:38;7.95;;;3.20;;
53056;SDS011;38940;50.096;4.012;2023-07-31T09:40:05;9.15;;;3.13;;
53056;SDS011;38940;50.096;4.012;2023-07-31T09:42:31;9.27;;;3.08;;
53056;SDS011;38940;50.096;4.012;2023-07-31T09:45:06;9.90;;;3.40;;
53056;SDS011;38940;50.096;4.012;2023-07-31T09:47:33;10.52;;;3.17;;
53056;SDS011;38940;50.096;4.012;2023-07-31T09:49:59;8.95;;;3.40;;
53056;SDS011;38940;50.096;4.012;2023-07-31T09:52:28;10.57;;;3.20;;
53056;SDS011;38940;50.096;4.012;2023-07-31T09:54:54;8.77;;;3.42;;
53056;SDS011;38940;50.096;4.012;2023-07-31T09:57:21;11.85;;;3.65;;
53056;SDS011;38940;50.096;4.012;2023-07-31T09:59:48;11.55;;;3.50;;
53056;SDS011;38940;50.096;4.012;2023-07-31T10:02:15;11.68;;;3.65;;
53056;SDS011;38940;50.096;4.012;2023-07-31T10:04:46;11.52;;;4.20;;
53056;SDS011;38940;50.096;4.012;2023-07-31T10:07:14;13.10;;;5.30;;
53056;SDS011;38940;50.096;4.012;2023-07-31T10:09:41;15.68;;;5.32;;
53056;SDS011;38940;50.096;4.012;2023-07-31T10:12:07;14.20;;;5.18;;
53056;SDS011;38940;50.096;4.012;2023-07-31T10:14:34;13.30;;;4.85;;
53056;SDS011;38940;50.096;4.012;2023-07-31T10:17:01;15.98;;;5.57;;
53056;SDS011;38940;50.096;4.012;2023-07-31T10:19:27;12.80;;;4.88;;
53056;SDS011;38940;50.096;4.012;2023-07-31T10:21:55;12.13;;;4.40;;
53056;SDS011;38940;50.096;4.012;2023-07-31T10:24:22;13.05;;;4.82;;
53056;SDS011;38940;50.096;4.012;2023-07-31T10:26:49;12.57;;;4.63;;
53056;SDS011;38940;50.096;4.012;2023-07-31T10:29:16;12.30;;;4.30;;
53056;SDS011;38940;50.096;4.012;2023-07-31T10:31:43;13.57;;;4.35;;
53056;SDS011;38940;50.096;4.012;2023-07-31T10:34:09;13.00;;;4.43;;
53056;SDS011;38940;50.096;4.012;2023-07-31T10:36:36;12.30;;;4.23;;
53056;SDS011;38940;50.096;4.012;2023-07-31T10:39:03;12.32;;;4.32;;
53056;SDS011;38940;50.096;4.012;2023-07-31T10:41:30;10.35;;;3.63;;
53056;SDS011;38940;50.096;4.012;2023-07-31T10:44:02;9.90;;;3.50;;
53056;SDS011;38940;50.096;4.012;2023-07-31T10:46:28;11.10;;;3.95;;
53056;SDS011;38940;50.096;4.012;2023-07-31T10:48:58;11.73;;;3.95;;
53056;SDS011;38940;50.096;4.012;2023-07-31T10:51:33;12.57;;;4.40;;
53056;SDS011;38940;50.096;4.012;2023-07-31T10:54:12;10.05;;;3.70;;
53056;SDS011;38940;50.096;4.012;2023-07-31T10:56:40;11.17;;;3.73;;
53056;SDS011;38940;50.096;4.012;2023-07-31T10:59:06;11.90;;;3.63;;
53056;SDS011;38940;50.096;4.012;2023-07-31T11:04:23;13.65;;;3.88;;
53056;SDS011;38940;50.096;4.012;2023-07-31T11:06:59;9.63;;;4.05;;
53056;SDS011;38940;50.096;4.012;2023-07-31T11:09:31;10.25;;;3.55;;
53056;SDS011;38940;50.096;4.012;2023-07-31T11:11:58;11.73;;;3.80;;
53056;SDS011;38940;50.096;4.012;2023-07-31T11:14:24;10.98;;;3.78;;
53056;SDS011;38940;50.096;4.012;2023-07-31T11:16:50;11.63;;;4.07;;
53056;SDS011;38940;50.096;4.012;2023-07-31T11:19:26;12.63;;;4.15;;
53056;SDS011;38940;50.096;4.012;2023-07-31T11:21:52;10.15;;;3.80;;
53056;SDS011;38940;50.096;4.012;2023-07-31T11:24:18;12.13;;;3.78;;
53056;SDS011;38940;50.096;4.012;2023-07-31T11:26:49;12.75;;;4.22;;
53056;SDS011;38940;50.096;4.012;2023-07-31T11:29:15;12.07;;;4.00;;
53056;SDS011;38940;50.096;4.012;2023-07-31T11:31:42;15.40;;;4.00;;
53056;SDS011;38940;50.096;4.012;2023-07-31T11:34:08;13.38;;;3.95;;
53056;SDS011;38940;50.096;4.012;2023-07-31T11:36:34;17.17;;;4.17;;
53056;SDS011;38940;50.096;4.012;2023-07-31T11:39:09;11.55;;;3.65;;
53056;SDS011;38940;50.096;4.012;2023-07-31T11:41:35;12.77;;;4.05;;
53056;SDS011;38940;50.096;4.012;2023-07-31T11:44:01;11.25;;;3.60;;
53056;SDS011;38940;50.096;4.012;2023-07-31T11:46:29;10.60;;;3.70;;
53056;SDS011;38940;50.096;4.012;2023-07-31T11:48:59;11.40;;;3.97;;
53056;SDS011;38940;50.096;4.012;2023-07-31T11:51:25;11.50;;;3.88;;
53056;SDS011;38940;50.096;4.012;2023-07-31T11:53:53;12.07;;;3.70;;
53056;SDS011;38940;50.096;4.012;2023-07-31T11:56:20;12.27;;;4.00;;
53056;SDS011;38940;50.096;4.012;2023-07-31T11:58:48;12.07;;;4.00;;
53056;SDS011;38940;50.096;4.012;2023-07-31T12:01:18;9.98;;;4.05;;
53056;SDS011;38940;50.096;4.012;2023-07-31T12:03:45;10.32;;;4.30;;
53056;SDS011;38940;50.096;4.012;2023-07-31T12:06:11;11.23;;;4.10;;
53056;SDS011;38940;50.096;4.012;2023-07-31T12:08:37;10.93;;;3.97;;
53056;SDS011;38940;50.096;4.012;2023-07-31T12:11:05;13.20;;;4.30;;
53056;SDS011;38940;50.096;4.012;2023-07-31T12:13:32;13.65;;;4.53;;
53056;SDS011;38940;50.096;4.012;2023-07-31T12:15:59;8.05;;;3.40;;
53056;SDS011;38940;50.096;4.012;2023-07-31T12:18:26;7.68;;;3.78;;
53056;SDS011;38940;50.096;4.012;2023-07-31T12:20:56;7.97;;;3.72;;
53056;SDS011;38940;50.096;4.012;2023-07-31T12:23:23;10.65;;;3.95;;
53056;SDS011;38940;50.096;4.012;2023-07-31T12:28:28;12.38;;;4.18;;
53056;SDS011;38940;50.096;4.012;2023-07-31T12:30:58;8.47;;;3.67;;
53056;SDS011;38940;50.096;4.012;2023-07-31T12:33:29;9.75;;;4.10;;
53056;SDS011;38940;50.096;4.012;2023-07-31T12:35:56;11.00;;;4.30;;
53056;SDS011;38940;50.096;4.012;2023-07-31T12:38:22;11.45;;;5.10;;
53056;SDS011;38940;50.096;4.012;2023-07-31T12:40:48;13.02;;;4.72;;
53056;SDS011;38940;50.096;4.012;2023-07-31T12:43:15;10.97;;;4.23;;
53056;SDS011;38940;50.096;4.012;2023-07-31T12:45:41;12.05;;;4.57;;
53056;SDS011;38940;50.096;4.012;2023-07-31T12:48:07;11.43;;;4.22;;
53056;SDS011;38940;50.096;4.012;2023-07-31T12:50:33;10.48;;;4.25;;
53056;SDS011;38940;50.096;4.012;2023-07-31T12:53:01;9.85;;;4.15;;
53056;SDS011;38940;50.096;4.012;2023-07-31T12:55:31;8.95;;;3.80;;
53056;SDS011;38940;50.096;4.012;2023-07-31T12:57:59;8.80;;;4.17;;
53056;SDS011;38940;50.096;4.012;2023-07-31T13:00:25;9.93;;;4.20;;
53056;SDS011;38940;50.096;4.012;2023-07-31T13:02:51;8.77;;;3.70;;
53056;SDS011;38940;50.096;4.012;2023-07-31T13:05:17;7.85;;;3.67;;
53056;SDS011;38940;50.096;4.012;2023-07-31T13:07:45;10.02;;;3.80;;
53056;SDS011;38940;50.096;4.012;2023-07-31T13:10:11;10.40;;;3.83;;
53056;SDS011;38940;50.096;4.012;2023-07-31T13:12:37;10.93;;;4.07;;
53056;SDS011;38940;50.096;4.012;2023-07-31T13:15:04;9.05;;;4.07;;
53056;SDS011;38940;50.096;4.012;2023-07-31T13:17:30;10.80;;;4.50;;
53056;SDS011;38940;50.096;4.012;2023-07-31T13:19:56;11.45;;;4.53;;
53056;SDS011;38940;50.096;4.012;2023-07-31T13:22:22;11.68;;;4.00;;
53056;SDS011;38940;50.096;4.012;2023-07-31T13:24:48;9.02;;;3.88;;
53056;SDS011;38940;50.096;4.012;2023-07-31T13:27:14;7.93;;;3.87;;
53056;SDS011;38940;50.096;4.012;2023-07-31T13:29:49;8.88;;;3.30;;
53056;SDS011;38940;50.096;4.012;2023-07-31T13:32:16;8.07;;;3.60;;
53056;SDS011;38940;50.096;4.012;2023-07-31T13:34:42;7.93;;;3.30;;
53056;SDS011;38940;50.096;4.012;2023-07-31T13:37:08;6.82;;;3.03;;
53056;SDS011;38940;50.096;4.012;2023-07-31T13:39:34;8.50;;;3.20;;
53056;SDS011;38940;50.096;4.012;2023-07-31T13:42:02;6.30;;;2.65;;
53056;SDS011;38940;50.096;4.012;2023-07-31T13:44:28;7.25;;;3.30;;
53056;SDS011;38940;50.096;4.012;2023-07-31T13:46:54;6.33;;;2.90;;
53056;SDS011;38940;50.096;4.012;2023-07-31T13:49:20;8.32;;;3.28;;
53056;SDS011;38940;50.096;4.012;2023-07-31T13:51:46;8.63;;;3.78;;
53056;SDS011;38940;50.096;4.012;2023-07-31T13:54:12;10.00;;;3.20;;
53056;SDS011;38940;50.096;4.012;2023-07-31T13:56:40;6.30;;;3.10;;
53056;SDS011;38940;50.096;4.012;2023-07-31T13:59:06;7.20;;;3.30;;
53056;SDS011;38940;50.096;4.012;2023-07-31T14:01:32;6.70;;;2.90;;
53056;SDS011;38940;50.096;4.012;2023-07-31T14:03:58;7.10;;;2.95;;
53056;SDS011;38940;50.096;4.012;2023-07-31T14:06:24;6.33;;;2.90;;
53056;SDS011;38940;50.096;4.012;2023-07-31T14:08:50;8.57;;;3.30;;
53056;SDS011;38940;50.096;4.012;2023-07-31T14:11:16;5.68;;;2.92;;
53056;SDS011;38940;50.096;4.012;2023-07-31T14:13:42;5.68;;;2.90;;
53056;SDS011;38940;50.096;4.012;2023-07-31T14:16:08;8.00;;;3.60;;
53056;SDS011;38940;50.096;4.012;2023-07-31T14:18:34;7.50;;;2.90;;
53056;SDS011;38940;50.096;4.012;2023-07-31T14:21:00;3.85;;;2.50;;
53056;SDS011;38940;50.096;4.012;2023-07-31T14:23:26;6.63;;;2.50;;
53056;SDS011;38940;50.096;4.012;2023-07-31T14:25:52;5.75;;;2.35;;
53056;SDS011;38940;50.096;4.012;2023-07-31T14:28:18;5.43;;;2.20;;
53056;SDS011;38940;50.096;4.012;2023-07-31T14:30:44;6.75;;;2.63;;
53056;SDS011;38940;50.096;4.012;2023-07-31T14:33:10;3.50;;;1.87;;
53056;SDS011;38940;50.096;4.012;2023-07-31T14:35:36;7.43;;;2.15;;
53056;SDS011;38940;50.096;4.012;2023-07-31T14:38:02;5.43;;;2.05;;
53056;SDS011;38940;50.096;4.012;2023-07-31T14:40:28;4.53;;;2.28;;
53056;SDS011;38940;50.096;4.012;2023-07-31T14:42:54;3.87;;;1.90;;
53056;SDS011;38940;50.096;4.012;2023-07-31T14:45:20;6.88;;;2.20;;
53056;SDS011;38940;50.096;4.012;2023-07-31T14:47:46;4.32;;;2.20;;
53056;SDS011;38940;50.096;4.012;2023-07-31T14:50:12;4.30;;;2.05;;
53056;SDS011;38940;50.096;4.012;2023-07-31T14:52:38;7.17;;;2.40;;
53056;SDS011;38940;50.096;4.012;2023-07-31T14:55:04;4.32;;;2.67;;
53056;SDS011;38940;50.096;4.012;2023-07-31T14:57:30;7.32;;;2.92;;